createdAt,value
2023-02-05T00:02:22.703Z,56.02
2023-02-05T00:04:50.576Z,55.03
2023-02-05T00:07:18.634Z,54.68
2023-02-05T00:09:46.524Z,55.33
2023-02-05T00:12:14.396Z,53.87
2023-02-05T00:14:42.295Z,53.60
2023-02-05T00:17:11.531Z,53.68
2023-02-05T00:19:39.414Z,54.56
2023-02-05T00:22:07.278Z,54.99
2023-02-05T00:24:35.146Z,55.21
2023-02-05T00:27:03.122Z,53.97
2023-02-05T00:29:31.033Z,55.71
2023-02-05T00:31:58.877Z,56.05
2023-02-05T00:34:28.186Z,56.59
2023-02-05T00:36:56.051Z,56.01
2023-02-05T00:39:23.932Z,56.35
2023-02-05T00:41:52.627Z,56.57
2023-02-05T00:44:20.508Z,56.59
2023-02-05T00:46:48.388Z,56.93
2023-02-05T00:49:16.275Z,56.04
2023-02-05T00:51:45.744Z,57.14
2023-02-05T00:54:13.679Z,55.99
2023-02-05T00:56:41.610Z,58.20
2023-02-05T00:59:09.439Z,57.40
2023-02-05T01:01:37.516Z,56.69
2023-02-05T01:04:05.712Z,57.01
2023-02-05T01:06:33.613Z,55.68
2023-02-05T01:09:03.417Z,56.37
2023-02-05T01:11:31.315Z,56.77
2023-02-05T01:13:59.222Z,57.98
2023-02-05T01:16:27.130Z,59.92
2023-02-05T01:18:56.770Z,58.66
2023-02-05T01:21:24.919Z,58.96
2023-02-05T01:23:54.543Z,59.53
2023-02-05T01:26:23.804Z,58.53
2023-02-05T01:28:51.732Z,58.45
2023-02-05T01:31:20.630Z,58.46
2023-02-05T01:33:48.665Z,58.59
2023-02-05T01:36:17.838Z,58.39
2023-02-05T01:38:45.740Z,57.29
2023-02-05T01:41:14.347Z,56.90
2023-02-05T01:43:43.597Z,59.07
2023-02-05T01:46:25.636Z,61.26
2023-02-05T01:48:58.009Z,58.38
2023-02-05T01:51:27.949Z,57.72
2023-02-05T01:53:56.598Z,57.01
2023-02-05T01:56:33.092Z,59.76
2023-02-05T01:59:09.176Z,60.07
2023-02-05T02:01:38.715Z,59.25
2023-02-05T02:04:07.076Z,59.04
2023-02-05T02:06:36.741Z,58.71
2023-02-05T02:09:07.480Z,59.17
2023-02-05T02:11:39.808Z,59.31
2023-02-05T02:14:10.913Z,57.39
2023-02-05T02:16:40.549Z,59.40
2023-02-05T02:19:15.628Z,60.70
2023-02-05T02:22:09.072Z,58.70
2023-02-05T02:25:29.883Z,59.23
2023-02-05T02:28:05.781Z,60.65
2023-02-05T02:30:40.688Z,60.31
2023-02-05T02:33:15.543Z,60.50
2023-02-05T02:35:49.142Z,60.34
2023-02-05T02:38:27.079Z,59.91
2023-02-05T02:40:59.009Z,60.56
2023-02-05T02:43:33.768Z,60.16
2023-02-05T02:46:06.556Z,59.69
2023-02-05T02:48:38.964Z,60.27
2023-02-05T02:51:09.113Z,59.80
2023-02-05T02:53:39.842Z,59.96
2023-02-05T02:56:11.667Z,59.73
2023-02-05T02:58:46.673Z,60.11
2023-02-05T03:01:18.586Z,60.43
2023-02-05T03:03:53.063Z,60.22
2023-02-05T03:06:22.261Z,61.27
2023-02-05T03:08:55.879Z,60.29
2023-02-05T03:11:26.232Z,61.27
2023-02-05T03:13:56.636Z,59.45
2023-02-05T03:16:28.947Z,59.06
2023-02-05T03:18:58.305Z,60.79
2023-02-05T03:21:29.314Z,59.78
2023-02-05T03:23:57.506Z,60.76
2023-02-05T03:26:27.424Z,61.42
2023-02-05T03:29:07.254Z,61.60
2023-02-05T03:31:43.670Z,60.75
2023-02-05T03:34:25.594Z,60.23
2023-02-05T03:37:05.837Z,61.37
2023-02-05T03:39:46.963Z,60.08
2023-02-05T03:42:30.056Z,60.78
2023-02-05T03:45:35.240Z,60.30
2023-02-05T03:48:16.999Z,60.68
2023-02-05T03:50:54.028Z,59.56
2023-02-05T03:53:29.201Z,60.24
2023-02-05T03:56:05.213Z,62.23
2023-02-05T03:58:37.742Z,60.24
2023-02-05T04:01:11.457Z,59.81
2023-02-05T04:03:40.420Z,60.16
2023-02-05T04:06:09.160Z,60.87
2023-02-05T04:08:37.576Z,60.66
2023-02-05T04:11:05.931Z,58.88
2023-02-05T04:13:34.905Z,59.89
2023-02-05T04:16:04.367Z,58.79
2023-02-05T04:18:33.713Z,59.20
2023-02-05T04:21:01.920Z,60.36
2023-02-05T04:23:31.973Z,59.21
2023-02-05T04:26:00.424Z,58.63
2023-02-05T04:28:35.021Z,59.24
2023-02-05T04:31:08.292Z,57.85
2023-02-05T04:33:39.028Z,58.63
2023-02-05T04:36:08.053Z,59.32
2023-02-05T04:38:36.488Z,59.64
2023-02-05T04:41:04.374Z,60.57
2023-02-05T04:43:32.310Z,59.81
2023-02-05T04:46:05.451Z,59.33
2023-02-05T04:48:33.435Z,59.43
2023-02-05T04:51:07.276Z,58.78
2023-02-05T04:53:35.128Z,59.09
2023-02-05T04:56:07.780Z,60.16
2023-02-05T04:58:35.742Z,59.64
2023-02-05T05:01:04.338Z,58.49
2023-02-05T05:03:32.572Z,57.07
2023-02-05T05:06:06.576Z,58.39
2023-02-05T05:08:34.893Z,58.13
2023-02-05T05:11:08.130Z,57.88
2023-02-05T05:13:36.320Z,58.40
2023-02-05T05:16:05.389Z,59.90
2023-02-05T05:18:33.553Z,58.83
2023-02-05T05:21:02.087Z,57.99
2023-02-05T05:23:31.386Z,57.16
2023-02-05T05:25:59.275Z,57.85
2023-02-05T05:28:27.684Z,57.57
2023-02-05T05:30:55.577Z,59.64
2023-02-05T05:33:23.454Z,59.04
2023-02-05T05:35:51.409Z,59.95
2023-02-05T05:38:19.269Z,60.29
2023-02-05T05:41:06.197Z,59.17
2023-02-05T05:43:49.202Z,59.62
2023-02-05T05:46:22.039Z,61.53
2023-02-05T05:48:51.505Z,60.91
2023-02-05T05:51:19.905Z,61.06
2023-02-05T05:53:48.553Z,60.14
2023-02-05T05:56:18.437Z,58.18
2023-02-05T05:58:47.046Z,59.20
2023-02-05T06:01:16.692Z,58.34
2023-02-05T06:03:44.926Z,58.72
2023-02-05T06:06:13.908Z,60.70
2023-02-05T06:08:41.912Z,60.34
2023-02-05T06:11:09.909Z,59.64
2023-02-05T06:13:39.225Z,59.77
2023-02-05T06:16:07.864Z,59.42
2023-02-05T06:18:35.912Z,60.69
2023-02-05T06:21:05.839Z,60.28
2023-02-05T06:23:34.140Z,60.34
2023-02-05T06:26:02.279Z,60.48
2023-02-05T06:28:30.195Z,60.66
2023-02-05T06:30:59.677Z,59.98
2023-02-05T06:33:27.663Z,60.32
2023-02-05T06:35:55.636Z,58.25
2023-02-05T06:38:23.708Z,57.23
2023-02-05T06:40:51.626Z,57.48
2023-02-05T06:43:19.664Z,57.19
2023-02-05T06:45:47.578Z,59.39
2023-02-05T06:48:18.186Z,58.54
2023-02-05T06:50:46.364Z,58.12
2023-02-05T06:53:14.417Z,57.13
2023-02-05T06:55:42.295Z,57.23
2023-02-05T06:58:10.154Z,56.67
2023-02-05T07:00:38.062Z,58.64
2023-02-05T07:03:06.585Z,58.90
2023-02-05T07:05:36.246Z,57.47
2023-02-05T07:08:06.766Z,56.97
2023-02-05T07:10:34.866Z,56.20
2023-02-05T07:13:05.558Z,56.26
2023-02-05T07:15:34.190Z,55.48
2023-02-05T07:18:02.236Z,55.84
2023-02-05T07:20:30.270Z,54.88
2023-02-05T07:23:00.331Z,55.08
2023-02-05T07:25:28.240Z,54.97
2023-02-05T07:27:56.292Z,55.61
2023-02-05T07:30:24.203Z,55.13
2023-02-05T07:32:52.074Z,54.83
2023-02-05T07:35:20.176Z,55.03
2023-02-05T07:37:48.168Z,55.18
2023-02-05T07:40:17.814Z,55.37
2023-02-05T07:42:46.241Z,56.19
2023-02-05T07:45:14.229Z,56.37
2023-02-05T07:47:42.173Z,56.35
2023-02-05T07:50:10.440Z,56.20
2023-02-05T07:52:38.332Z,56.47
2023-02-05T07:55:06.857Z,55.64
2023-02-05T07:57:36.358Z,55.34
2023-02-05T08:00:04.662Z,56.09
2023-02-05T08:02:40.304Z,56.14
2023-02-05T08:05:08.721Z,55.45
2023-02-05T08:07:37.547Z,55.97
2023-02-05T08:10:06.454Z,55.17
2023-02-05T08:12:35.905Z,57.06
2023-02-05T08:15:03.953Z,56.99
2023-02-05T08:17:31.920Z,55.24
2023-02-05T08:20:06.964Z,57.32
2023-02-05T08:22:36.721Z,56.28
2023-02-05T08:25:06.137Z,56.84
2023-02-05T08:27:34.299Z,55.62
2023-02-05T08:30:03.815Z,56.16
2023-02-05T08:32:31.779Z,55.00
2023-02-05T08:34:59.849Z,55.31
2023-02-05T08:37:28.038Z,55.90
2023-02-05T08:39:56.014Z,54.10
2023-02-05T08:42:24.738Z,54.33
2023-02-05T08:44:53.134Z,54.16
2023-02-05T08:47:23.432Z,53.45
2023-02-05T08:49:51.558Z,53.51
2023-02-05T08:52:19.624Z,54.87
2023-02-05T08:54:48.136Z,55.30
2023-02-05T08:57:16.596Z,54.63
2023-02-05T08:59:44.686Z,53.89
2023-02-05T09:02:15.707Z,53.85
2023-02-05T09:04:45.141Z,54.16
2023-02-05T09:07:13.090Z,54.18
2023-02-05T09:09:41.102Z,53.24
2023-02-05T09:12:10.646Z,52.97
2023-02-05T09:14:38.633Z,53.35
2023-02-05T09:17:07.972Z,53.51
2023-02-05T09:19:36.517Z,53.89
2023-02-05T09:22:06.891Z,53.48
2023-02-05T09:24:34.813Z,53.84
2023-02-05T09:27:02.773Z,53.21
2023-02-05T09:29:30.728Z,54.33
2023-02-05T09:31:59.122Z,52.89
2023-02-05T09:34:27.402Z,53.24
2023-02-05T09:36:55.274Z,53.02
2023-02-05T09:40:01.908Z,52.21
2023-02-05T09:42:19.971Z,52.13
2023-02-05T09:45:00.887Z,52.38
2023-02-05T09:47:34.182Z,52.41
2023-02-05T09:50:08.765Z,52.51
2023-02-05T09:52:39.712Z,52.19
2023-02-05T09:55:20.972Z,52.16
2023-02-05T09:57:49.190Z,51.42
2023-02-05T10:00:23.889Z,53.11
2023-02-05T10:02:56.888Z,53.18
2023-02-05T10:05:27.448Z,53.24
2023-02-05T10:08:03.904Z,51.43
2023-02-05T10:10:39.989Z,50.91
2023-02-05T10:13:28.664Z,50.65
2023-02-05T10:16:24.456Z,50.18
2023-02-05T10:19:12.728Z,49.33
2023-02-05T10:21:55.776Z,50.11
2023-02-05T10:24:45.839Z,50.95
2023-02-05T10:27:20.883Z,51.38
2023-02-05T10:29:58.835Z,50.34
2023-02-05T10:32:35.404Z,51.15
2023-02-05T10:35:18.278Z,50.38
2023-02-05T10:37:50.548Z,50.71
2023-02-05T10:40:22.943Z,50.62
2023-02-05T10:42:56.209Z,50.01
2023-02-05T10:45:27.456Z,50.98
2023-02-05T10:48:08.361Z,50.61
2023-02-05T10:50:50.499Z,50.83
2023-02-05T10:53:25.032Z,49.80
2023-02-05T10:55:53.278Z,49.89
2023-02-05T10:58:36.910Z,50.49
2023-02-05T11:01:06.331Z,50.60
2023-02-05T11:03:35.242Z,51.10
2023-02-05T11:06:07.105Z,50.73
2023-02-05T11:08:38.002Z,51.88
2023-02-05T11:11:07.701Z,50.60
2023-02-05T11:13:42.961Z,50.75
2023-02-05T11:16:11.194Z,49.69
2023-02-05T11:18:43.341Z,49.56
2023-02-05T11:21:11.610Z,49.01
2023-02-05T11:23:41.220Z,49.26
2023-02-05T11:26:11.819Z,48.90
2023-02-05T11:28:41.079Z,49.82
2023-02-05T11:31:26.413Z,51.39
2023-02-05T11:34:11.902Z,51.07
2023-02-05T11:36:48.202Z,51.17
2023-02-05T11:39:30.718Z,51.33
2023-02-05T11:41:58.863Z,50.10
2023-02-05T11:44:32.750Z,50.45
2023-02-05T11:47:02.579Z,50.45
2023-02-05T11:49:34.360Z,50.13
2023-02-05T11:52:10.225Z,49.52
2023-02-05T11:54:39.627Z,50.41
2023-02-05T11:57:24.378Z,49.51
2023-02-05T11:59:58.298Z,49.79
2023-02-05T12:02:33.087Z,49.28
2023-02-05T12:05:08.477Z,50.86
2023-02-05T12:07:43.805Z,51.62
2023-02-05T12:10:17.992Z,50.96
2023-02-05T12:12:58.183Z,49.28
2023-02-05T12:15:32.319Z,48.85
2023-02-05T12:18:08.801Z,50.15
2023-02-05T12:20:42.441Z,49.58
2023-02-05T12:23:42.896Z,49.62
2023-02-05T12:26:27.536Z,51.24
2023-02-05T12:29:09.691Z,50.49
2023-02-05T12:31:59.880Z,51.16
2023-02-05T12:34:35.941Z,49.44
2023-02-05T12:37:19.752Z,49.60
2023-02-05T12:39:53.481Z,48.57
2023-02-05T12:42:37.248Z,48.39
2023-02-05T12:45:34.003Z,48.78
2023-02-05T12:48:21.077Z,49.76
2023-02-05T12:51:00.036Z,50.46
2023-02-05T12:54:04.057Z,49.38
2023-02-05T12:56:52.459Z,47.95
2023-02-05T12:59:30.025Z,48.03
2023-02-05T13:02:02.378Z,48.54
2023-02-05T13:04:36.239Z,48.11
2023-02-05T13:07:12.719Z,47.12
2023-02-05T13:09:48.941Z,47.02
2023-02-05T13:12:19.674Z,47.33
2023-02-05T13:14:58.867Z,47.88
2023-02-05T13:17:29.358Z,47.44
2023-02-05T13:20:01.586Z,47.43
2023-02-05T13:22:52.491Z,47.89
2023-02-05T13:25:45.032Z,47.96
2023-02-05T13:28:41.588Z,48.00
2023-02-05T13:31:19.794Z,48.95
2023-02-05T13:33:49.010Z,48.20
2023-02-05T13:36:44.921Z,48.36
2023-02-05T13:39:34.799Z,48.57
2023-02-05T13:42:26.772Z,48.58
2023-02-05T13:45:16.011Z,48.51
2023-02-05T13:48:12.587Z,48.50
2023-02-05T13:51:10.638Z,47.96
2023-02-05T13:54:10.664Z,46.82
2023-02-05T13:56:49.685Z,46.99
2023-02-05T13:59:23.647Z,48.04
2023-02-05T14:01:56.278Z,48.32
2023-02-05T14:04:29.717Z,49.15
2023-02-05T14:07:01.075Z,47.57
2023-02-05T14:09:36.070Z,47.96
2023-02-05T14:12:07.174Z,47.66
2023-02-05T14:14:36.160Z,48.40
2023-02-05T14:17:25.137Z,47.72
2023-02-05T14:19:58.529Z,47.14
2023-02-05T14:22:39.577Z,47.87
2023-02-05T14:25:42.588Z,49.74
2023-02-05T14:28:36.454Z,49.50
2023-02-05T14:31:07.296Z,48.99
2023-02-05T14:33:40.029Z,48.95
2023-02-05T14:36:33.189Z,49.41
2023-02-05T14:39:05.247Z,49.62
2023-02-05T14:41:50.480Z,48.93
2023-02-05T14:44:26.176Z,48.52
2023-02-05T14:46:59.739Z,48.39
2023-02-05T14:49:31.126Z,48.76
2023-02-05T14:52:02.808Z,49.12
2023-02-05T14:54:34.911Z,48.89
2023-02-05T14:57:13.812Z,48.84
2023-02-05T14:59:50.950Z,47.86
2023-02-05T15:02:54.744Z,47.35
2023-02-05T15:05:29.392Z,48.66
2023-02-05T15:08:11.872Z,48.36
2023-02-05T15:10:49.243Z,48.88
2023-02-05T15:13:18.927Z,48.60
2023-02-05T15:16:23.492Z,49.18
2023-02-05T15:18:55.992Z,49.62
2023-02-05T15:21:28.765Z,49.63
2023-02-05T15:24:03.632Z,49.40
2023-02-05T15:26:40.546Z,49.64
2023-02-05T15:29:15.011Z,49.98
2023-02-05T15:31:47.144Z,50.29
2023-02-05T15:34:33.521Z,50.59
2023-02-05T15:37:06.536Z,50.74
2023-02-05T15:39:44.243Z,50.96
2023-02-05T15:42:18.041Z,51.61
2023-02-05T15:44:46.777Z,51.22
2023-02-05T15:47:20.472Z,51.52
2023-02-05T15:49:52.953Z,51.26
2023-02-05T15:52:24.621Z,51.40
2023-02-05T15:54:57.148Z,51.37
2023-02-05T15:57:28.628Z,51.85
2023-02-05T15:59:58.671Z,51.34
2023-02-05T16:02:28.961Z,51.93
2023-02-05T16:05:01.371Z,52.98
2023-02-05T16:07:31.368Z,51.53
2023-02-05T16:10:01.693Z,51.45
2023-02-05T16:12:31.459Z,52.19
2023-02-05T16:15:01.588Z,52.76
2023-02-05T16:17:39.145Z,52.49
2023-02-05T16:20:19.117Z,52.40
2023-02-05T16:22:52.802Z,52.57
2023-02-05T16:25:34.028Z,52.50
2023-02-05T16:28:05.769Z,51.99
2023-02-05T16:30:40.450Z,51.78
2023-02-05T16:33:16.018Z,52.09
2023-02-05T16:35:48.588Z,52.45
2023-02-05T16:38:19.212Z,53.21
2023-02-05T16:40:50.347Z,52.28
2023-02-05T16:43:30.203Z,52.30
2023-02-05T16:46:26.312Z,53.09
2023-02-05T16:48:56.883Z,52.78
2023-02-05T16:51:55.524Z,52.88
2023-02-05T16:54:32.663Z,52.54
2023-02-05T16:57:07.411Z,52.83
2023-02-05T16:59:40.470Z,52.65
2023-02-05T17:02:24.331Z,53.01
2023-02-05T17:04:54.189Z,52.70
2023-02-05T17:07:24.601Z,53.90
2023-02-05T17:09:52.802Z,53.66
2023-02-05T17:12:48.439Z,53.40
2023-02-05T17:15:48.170Z,53.59
2023-02-05T17:18:34.843Z,53.88
2023-02-05T17:21:24.145Z,54.58
2023-02-05T17:23:54.392Z,55.14
2023-02-05T17:26:22.530Z,55.46
2023-02-05T17:28:53.746Z,55.28
2023-02-05T17:31:24.890Z,54.64
2023-02-05T17:33:55.261Z,55.19
2023-02-05T17:36:23.386Z,56.10
2023-02-05T17:38:51.798Z,57.14
2023-02-05T17:41:41.217Z,56.96
2023-02-05T17:44:20.847Z,56.75
2023-02-05T17:46:48.825Z,56.61
2023-02-05T17:49:22.976Z,55.89
2023-02-05T17:51:51.014Z,58.11
2023-02-05T17:54:21.946Z,57.50
2023-02-05T17:56:51.474Z,57.25
2023-02-05T17:59:22.308Z,57.80
2023-02-05T18:01:51.190Z,57.63
2023-02-05T18:04:20.100Z,57.92
2023-02-05T18:06:49.614Z,57.80
2023-02-05T18:09:18.757Z,58.19
2023-02-05T18:11:46.702Z,57.52
2023-02-05T18:14:16.010Z,58.69
2023-02-05T18:16:44.147Z,58.27
2023-02-05T18:19:12.163Z,59.64
2023-02-05T18:21:40.146Z,57.20
2023-02-05T18:24:08.223Z,56.43
2023-02-05T18:26:36.339Z,56.77
2023-02-05T18:29:04.387Z,57.02
2023-02-05T18:31:35.237Z,57.07
2023-02-05T18:34:03.162Z,56.46
2023-02-05T18:36:31.099Z,58.49
2023-02-05T18:38:58.962Z,56.34
2023-02-05T18:41:28.567Z,57.23
2023-02-05T18:43:57.515Z,57.05
2023-02-05T18:46:26.255Z,58.51
2023-02-05T18:48:55.727Z,58.28
2023-02-05T18:51:24.864Z,59.12
2023-02-05T18:53:54.092Z,60.48
2023-02-05T18:56:24.212Z,58.24
2023-02-05T18:58:54.588Z,58.63
2023-02-05T19:01:22.949Z,58.10
2023-02-05T19:03:52.773Z,58.85
2023-02-05T19:06:22.580Z,59.15
2023-02-05T19:08:51.272Z,58.74
2023-02-05T19:11:22.480Z,58.79
2023-02-05T19:13:56.884Z,58.59
2023-02-05T19:16:26.674Z,59.17
2023-02-05T19:18:54.716Z,60.32
2023-02-05T19:21:26.717Z,58.88
2023-02-05T19:23:56.702Z,59.60
2023-02-05T19:26:26.087Z,60.67
2023-02-05T19:28:56.307Z,59.76
2023-02-05T19:31:25.354Z,59.09
2023-02-05T19:33:53.411Z,59.36
2023-02-05T19:36:21.277Z,58.10
2023-02-05T19:38:50.773Z,59.10
2023-02-05T19:41:20.842Z,59.82
2023-02-05T19:43:52.430Z,58.74
2023-02-05T19:46:22.463Z,58.52
2023-02-05T19:48:50.478Z,58.15
2023-02-05T19:51:18.980Z,58.40
2023-02-05T19:53:47.496Z,58.92
2023-02-05T19:56:18.705Z,59.74
2023-02-05T19:58:48.567Z,59.99
2023-02-05T20:01:18.733Z,59.68
2023-02-05T20:03:47.201Z,58.51
2023-02-05T20:06:16.815Z,58.60
2023-02-05T20:08:45.593Z,59.78
2023-02-05T20:11:14.526Z,59.85
2023-02-05T20:13:44.287Z,60.02
2023-02-05T20:16:14.093Z,59.99
2023-02-05T20:18:42.866Z,60.26
2023-02-05T20:21:13.424Z,60.44
2023-02-05T20:23:41.961Z,61.18
2023-02-05T20:26:10.515Z,60.41
2023-02-05T20:29:00.762Z,60.64
2023-02-05T20:31:41.179Z,62.51
2023-02-05T20:34:10.920Z,60.78
2023-02-05T20:36:39.038Z,61.77
2023-02-05T20:39:08.589Z,60.08
2023-02-05T20:41:36.456Z,60.15
2023-02-05T20:44:04.960Z,60.62
2023-02-05T20:46:34.290Z,59.63
2023-02-05T20:49:03.494Z,60.88
2023-02-05T20:51:31.697Z,60.32
2023-02-05T20:54:00.701Z,61.33
2023-02-05T20:56:30.446Z,59.52
2023-02-05T20:58:59.966Z,58.31
2023-02-05T21:01:29.098Z,59.00
2023-02-05T21:04:01.150Z,60.41
2023-02-05T21:06:32.943Z,59.85
2023-02-05T21:09:00.846Z,59.21
2023-02-05T21:11:30.035Z,59.76
2023-02-05T21:13:58.661Z,58.41
2023-02-05T21:16:28.428Z,58.78
2023-02-05T21:18:57.826Z,60.42
2023-02-05T21:21:28.103Z,62.71
2023-02-05T21:23:56.995Z,61.44
2023-02-05T21:26:26.996Z,59.24
2023-02-05T21:28:56.271Z,59.40
2023-02-05T21:31:25.240Z,59.44
2023-02-05T21:33:53.097Z,60.33
2023-02-05T21:36:22.314Z,60.63
2023-02-05T21:38:50.135Z,60.88
2023-02-05T21:41:19.586Z,59.37
2023-02-05T21:43:50.292Z,59.13
2023-02-05T21:46:18.650Z,61.50
2023-02-05T21:48:49.699Z,60.60
2023-02-05T21:51:19.596Z,61.24
2023-02-05T21:53:49.052Z,62.08
2023-02-05T21:56:18.007Z,61.07
2023-02-05T21:58:45.893Z,61.10
2023-02-05T22:01:15.848Z,60.69
2023-02-05T22:03:47.999Z,59.98
2023-02-05T22:06:16.482Z,59.88
2023-02-05T22:08:47.162Z,60.20
2023-02-05T22:11:16.488Z,60.06
2023-02-05T22:13:46.878Z,59.11
2023-02-05T22:16:16.333Z,59.26
2023-02-05T22:18:44.436Z,60.52
2023-02-05T22:21:14.666Z,60.41
2023-02-05T22:23:44.268Z,60.45
2023-02-05T22:26:13.112Z,60.54
2023-02-05T22:28:42.646Z,58.65
2023-02-05T22:31:12.593Z,59.31
2023-02-05T22:33:42.561Z,59.08
2023-02-05T22:36:12.533Z,59.42
2023-02-05T22:38:41.372Z,58.82
2023-02-05T22:41:10.992Z,58.46
2023-02-05T22:43:38.872Z,59.31
2023-02-05T22:46:09.854Z,59.39
2023-02-05T22:48:39.039Z,60.63
2023-02-05T22:51:08.047Z,59.24
2023-02-05T22:53:36.140Z,59.98
2023-02-05T22:56:06.045Z,60.45
2023-02-05T22:58:34.282Z,60.00
2023-02-05T23:01:10.389Z,60.24
2023-02-05T23:03:39.659Z,60.29
2023-02-05T23:06:12.097Z,59.82
2023-02-05T23:08:40.426Z,60.58
2023-02-05T23:11:09.878Z,60.06
2023-02-05T23:13:38.091Z,59.95
2023-02-05T23:16:09.985Z,60.35
2023-02-05T23:18:38.683Z,59.64
2023-02-05T23:21:08.824Z,60.24
2023-02-05T23:23:36.710Z,59.73
2023-02-05T23:26:09.598Z,60.19
2023-02-05T23:28:38.559Z,60.57
2023-02-05T23:31:07.344Z,60.85
2023-02-05T23:33:37.496Z,60.16
2023-02-05T23:36:10.243Z,60.02
2023-02-05T23:38:39.222Z,60.19
2023-02-05T23:41:07.999Z,60.47
2023-02-05T23:43:37.583Z,60.58
2023-02-05T23:46:06.969Z,61.25
2023-02-05T23:48:36.615Z,60.44
2023-02-05T23:51:04.693Z,61.69
2023-02-05T23:53:32.553Z,60.76
2023-02-05T23:56:00.407Z,60.58
2023-02-05T23:58:28.365Z,59.92
